Time;durP1;ratioP1;P1;durP2;ratioP2;P2;SDS_P1;SDS_P2;PMS_P1;PMS_P2;Temp;Humidity;BMP_temperature;BMP_pressure;BME280_temperature;BME280_humidity;BME280_pressure;Samples;Min_cycle;Max_cycle;Signal;HPM_P1;HPM_P2
2022/07/11 00:01:03;;;;;;;;;;;;;;;28.60;33.99;94763.78;4989460;28;7008;-60
2022/07/11 00:03:32;;;;;;;;;;;;;;;28.59;34.06;94759.53;4974879;28;7604;-60
2022/07/11 00:05:58;;;;;;;;;;;;;;;28.59;34.17;94765.06;4971924;28;7672;-60
2022/07/11 00:08:24;;;;;;;;;;;;;;;28.59;33.90;94761.56;5002681;28;9026;-60
2022/07/11 00:10:51;;;;;;;;;;;;;;;28.61;34.37;94757.00;5007505;28;7529;-60
2022/07/11 00:13:21;;;;;;;;;;;;;;;28.61;34.24;94757.00;4986839;28;7773;-61
2022/07/11 00:15:47;;;;;;;;;;;;;;;28.59;34.20;94759.53;4994119;28;9186;-60
2022/07/11 00:18:14;;;;;;;;;;;;;;;28.59;34.32;94751.22;4985231;28;7240;-60
2022/07/11 00:20:42;;;;;;;;;;;;;;;28.59;34.27;94754.00;5005313;28;7256;-60
2022/07/11 00:23:10;;;;;;;;;;;;;;;28.60;34.10;94754.75;4987363;28;9406;-61
2022/07/11 00:25:36;;;;;;;;;;;;;;;28.58;34.53;94755.25;4990295;28;7190;-60
2022/07/11 00:28:02;;;;;;;;;;;;;;;28.59;34.34;94750.47;4987663;28;7257;-60
2022/07/11 00:30:29;;;;;;;;;;;;;;;28.59;34.37;94751.22;4990871;28;9184;-61
2022/07/11 00:32:55;;;;;;;;;;;;;;;28.60;34.33;94760.28;5006860;28;7147;-61
2022/07/11 00:35:24;;;;;;;;;;;;;;;28.60;34.14;94752.72;4993657;28;9495;-60
2022/07/11 00:37:50;;;;;;;;;;;;;;;28.60;34.18;94760.28;5008876;28;9150;-60
2022/07/11 00:40:17;;;;;;;;;;;;;;;28.61;34.38;94759.00;5003778;28;7640;-60
2022/07/11 00:42:45;;;;;;;;;;;;;;;28.60;34.17;94755.47;5009466;28;7187;-60
2022/07/11 00:45:11;;;;;;;;;;;;;;;28.60;34.22;94758.25;5011445;28;9788;-60
2022/07/11 00:47:38;;;;;;;;;;;;;;;28.59;34.02;94756.78;5012725;28;9426;-60
2022/07/11 00:50:07;;;;;;;;;;;;;;;28.59;34.29;94750.47;4993933;28;8392;-61
2022/07/11 00:52:34;;;;;;;;;;;;;;;28.58;34.34;94752.50;5007472;28;7188;-60
2022/07/11 00:55:00;;;;;;;;;;;;;;;28.58;34.48;94752.50;4990494;28;7024;-60
2022/07/11 00:57:29;;;;;;;;;;;;;;;28.57;34.47;94745.47;5009475;28;7074;-60
2022/07/11 00:59:55;;;;;;;;;;;;;;;28.59;34.50;94747.72;5011755;28;9192;-61
2022/07/11 01:02:40;;;;;;;;;;;;;;;28.60;34.30;94749.22;4985339;28;9145;-60
2022/07/11 01:05:07;;;;;;;;;;;;;;;28.60;34.26;94746.44;4993780;28;7244;-60
2022/07/11 01:07:59;;;;;;;;;;;;;;;28.61;34.38;94747.94;4997499;28;7654;-60
2022/07/11 01:10:30;;;;;;;;;;;;;;;28.61;34.28;94743.16;4931527;28;7310;-60
2022/07/11 01:13:07;;;;;;;;;;;;;;;28.58;34.36;94740.69;4944426;28;7092;-60
2022/07/11 01:15:43;;;;;;;;;;;;;;;28.57;34.52;94742.72;4929800;28;9226;-60
2022/07/11 01:18:09;;;;;;;;;;;;;;;28.56;34.92;94738.41;4933265;28;9097;-60
2022/07/11 01:20:37;;;;;;;;;;;;;;;28.54;34.42;94743.72;4936916;28;7293;-60
2022/07/11 01:23:05;;;;;;;;;;;;;;;28.53;34.52;94736.69;4945894;28;9624;-60
2022/07/11 01:25:31;;;;;;;;;;;;;;;28.54;34.63;94729.13;4928971;28;7224;-60
2022/07/11 01:28:07;;;;;;;;;;;;;;;28.58;34.58;94733.13;4933357;28;7612;-60
2022/07/11 01:30:36;;;;;;;;;;;;;;;28.57;34.53;94736.38;4929054;28;8805;-60
2022/07/11 01:33:03;;;;;;;;;;;;;;;28.55;34.85;94739.69;4930102;28;7277;-60
2022/07/11 01:35:31;;;;;;;;;;;;;;;28.55;34.59;94734.16;4932477;28;7191;-60
2022/07/11 01:38:08;;;;;;;;;;;;;;;28.53;34.54;94725.63;4950749;28;6862;-60
2022/07/11 01:40:36;;;;;;;;;;;;;;;28.53;34.82;94725.63;4931761;28;8439;-60
2022/07/11 01:43:02;;;;;;;;;;;;;;;28.55;34.04;94725.09;4936428;28;7359;-60
2022/07/11 01:45:28;;;;;;;;;;;;;;;28.53;34.75;94717.31;4929081;29;7567;-61
2022/07/11 01:47:54;;;;;;;;;;;;;;;28.50;34.90;94721.13;4990379;28;6983;-61
2022/07/11 01:50:20;;;;;;;;;;;;;;;28.49;35.07;94714.09;4998856;28;6944;-60
2022/07/11 01:52:46;;;;;;;;;;;;;;;28.49;34.84;94716.88;4992962;28;7406;-60
2022/07/11 01:55:27;;;;;;;;;;;;;;;28.51;34.65;94719.88;4995384;28;7224;-60
2022/07/11 01:57:57;;;;;;;;;;;;;;;28.49;34.73;94714.09;4993301;28;8992;-60
2022/07/11 02:00:29;;;;;;;;;;;;;;;28.49;34.86;94716.13;4997405;28;7248;-60
2022/07/11 02:02:58;;;;;;;;;;;;;;;28.49;34.72;94713.34;5007144;28;7014;-61
2022/07/11 02:05:27;;;;;;;;;;;;;;;28.51;34.50;94714.34;4987974;28;7306;-60
2022/07/11 02:08:17;;;;;;;;;;;;;;;28.49;34.87;94714.09;5007329;28;7797;-61
2022/07/11 02:10:51;;;;;;;;;;;;;;;28.49;34.91;94716.88;5003301;28;8485;-60
2022/07/11 02:13:21;;;;;;;;;;;;;;;28.48;34.56;94709.84;5004937;28;9202;-61
2022/07/11 02:15:50;;;;;;;;;;;;;;;28.45;35.07;94705.34;5001278;28;7514;-60
2022/07/11 02:18:18;;;;;;;;;;;;;;;28.47;34.70;94708.31;4990248;28;9434;-60
2022/07/11 02:20:51;;;;;;;;;;;;;;;28.50;34.78;94712.06;5000624;28;9173;-60
2022/07/11 02:23:18;;;;;;;;;;;;;;;28.52;34.80;94717.81;5002316;28;8971;-60
2022/07/11 02:25:45;;;;;;;;;;;;;;;28.51;34.26;94717.09;5015613;28;7122;-60
2022/07/11 02:28:12;;;;;;;;;;;;;;;28.52;34.98;94713.03;5003757;28;9023;-60
2022/07/11 02:30:45;;;;;;;;;;;;;;;28.50;34.62;94709.31;5008742;28;7229;-60
2022/07/11 02:33:15;;;;;;;;;;;;;;;28.49;34.64;94714.09;4989365;28;7170;-61
2022/07/11 02:35:46;;;;;;;;;;;;;;;28.48;35.18;94714.63;5004013;28;7527;-60
2022/07/11 02:38:14;;;;;;;;;;;;;;;28.49;34.61;94708.56;5009335;28;8055;-61
2022/07/11 02:40:47;;;;;;;;;;;;;;;28.48;34.43;94707.06;5001978;28;7082;-60
2022/07/11 02:43:26;;;;;;;;;;;;;;;28.47;34.88;94702.78;5011845;28;7083;-60
2022/07/11 02:45:57;;;;;;;;;;;;;;;28.48;34.79;94703.53;5002217;28;9171;-61
2022/07/11 02:48:23;;;;;;;;;;;;;;;28.48;34.80;94698.75;4999401;28;9061;-60
2022/07/11 02:50:49;;;;;;;;;;;;;;;28.46;34.77;94695.78;4994105;28;7036;-61
2022/07/11 02:53:15;;;;;;;;;;;;;;;28.44;34.76;94695.56;4988104;28;7218;-61
2022/07/11 02:55:43;;;;;;;;;;;;;;;28.47;34.04;94702.06;4990302;28;9155;-60
2022/07/11 02:58:16;;;;;;;;;;;;;;;28.49;34.51;94696.75;5007879;28;9554;-60
2022/07/11 03:00:42;;;;;;;;;;;;;;;28.47;34.46;94693.75;4992617;28;9400;-61
2022/07/11 03:03:10;;;;;;;;;;;;;;;28.45;34.92;94697.03;4994252;28;8088;-60
2022/07/11 03:05:38;;;;;;;;;;;;;;;28.44;34.75;94701.09;4992139;28;9083;-61
2022/07/11 03:08:04;;;;;;;;;;;;;;;28.46;34.79;94701.31;4988349;28;7274;-61
2022/07/11 03:10:30;;;;;;;;;;;;;;;28.44;34.81;94694.78;4989018;28;7054;-60
2022/07/11 03:13:03;;;;;;;;;;;;;;;28.44;34.79;94695.56;4990374;28;7438;-60
2022/07/11 03:15:34;;;;;;;;;;;;;;;28.46;34.42;94693.00;4995829;28;7232;-60
2022/07/11 03:18:03;;;;;;;;;;;;;;;28.46;34.94;94684.69;5007992;28;7076;-61
2022/07/11 03:20:29;;;;;;;;;;;;;;;28.45;34.62;94691.50;4999955;28;7211;-60
2022/07/11 03:22:55;;;;;;;;;;;;;;;28.47;34.65;94696.53;4991701;28;7206;-61
2022/07/11 03:25:21;;;;;;;;;;;;;;;28.47;34.42;94688.22;5003950;28;7220;-60
2022/07/11 03:27:47;;;;;;;;;;;;;;;28.41;34.04;94685.50;5017758;28;7438;-60
2022/07/11 03:30:14;;;;;;;;;;;;;;;28.45;34.48;94688.00;5006847;28;9193;-60
2022/07/11 03:32:40;;;;;;;;;;;;;;;28.45;34.17;94694.25;5008644;28;7281;-61
2022/07/11 03:38:11;;;;;;;;;;;;;;;28.45;34.58;94694.25;4962157;28;7262;-61
2022/07/11 03:40:40;;;;;;;;;;;;;;;28.43;34.50;94693.31;4948994;28;10051;-60
2022/07/11 03:43:15;;;;;;;;;;;;;;;28.41;34.28;94693.06;4950419;28;7035;-60
2022/07/11 03:45:41;;;;;;;;;;;;;;;28.41;34.66;94691.06;4961195;28;7207;-60
2022/07/11 03:48:08;;;;;;;;;;;;;;;28.40;34.70;94688.81;4949929;28;7309;-60
2022/07/11 03:50:35;;;;;;;;;;;;;;;28.41;34.58;94691.06;4953421;28;7365;-60
2022/07/11 03:53:02;;;;;;;;;;;;;;;28.41;34.08;94688.28;4961193;28;7389;-60
2022/07/11 03:55:32;;;;;;;;;;;;;;;28.42;34.52;94683.50;4944762;28;7581;-60
2022/07/11 03:57:59;;;;;;;;;;;;;;;28.41;34.13;94687.53;4959409;28;7135;-61
2022/07/11 04:00:28;;;;;;;;;;;;;;;28.40;34.37;94681.28;4961952;28;7250;-61
2022/07/11 04:02:54;;;;;;;;;;;;;;;28.42;34.67;94689.03;4941577;28;7654;-61
2022/07/11 04:05:19;;;;;;;;;;;;;;;28.41;34.44;94691.06;4957547;28;7254;-60
2022/07/11 04:07:48;;;;;;;;;;;;;;;28.43;34.52;94682.97;4944327;28;9332;-61
2022/07/11 04:10:14;;;;;;;;;;;;;;;28.40;34.47;94681.28;4963255;28;8257;-60
2022/07/11 04:12:40;;;;;;;;;;;;;;;28.42;34.44;94692.56;4962412;28;7191;-60
2022/07/11 04:15:07;;;;;;;;;;;;;;;28.39;34.58;94688.06;5003776;28;7643;-60
2022/07/11 04:17:34;;;;;;;;;;;;;;;28.37;34.39;94679.53;5003456;28;9044;-60
2022/07/11 04:20:00;;;;;;;;;;;;;;;28.37;34.47;94682.31;5004311;28;7327;-60
2022/07/11 04:22:28;;;;;;;;;;;;;;;28.39;34.40;94679.75;5008388;28;9005;-60
2022/07/11 04:24:54;;;;;;;;;;;;;;;28.41;34.25;94682.00;5000257;28;7227;-60
2022/07/11 04:27:24;;;;;;;;;;;;;;;28.43;34.65;94694.03;4982552;28;7264;-60
2022/07/11 04:29:50;;;;;;;;;;;;;;;28.39;34.22;94688.06;5007166;28;9444;-60
2022/07/11 04:32:18;;;;;;;;;;;;;;;28.36;34.18;94687.06;4985793;28;8346;-60
2022/07/11 04:34:46;;;;;;;;;;;;;;;28.36;34.60;94697.41;4987693;28;7000;-60
2022/07/11 04:37:15;;;;;;;;;;;;;;;28.35;34.53;94693.91;5010189;28;9393;-60
2022/07/11 04:39:41;;;;;;;;;;;;;;;28.33;36.39;94693.69;4984928;28;7263;-60
2022/07/11 04:42:07;;;;;;;;;;;;;;;28.34;35.67;94683.34;5007009;28;7194;-60
2022/07/11 04:44:33;;;;;;;;;;;;;;;28.34;34.81;94697.16;5001080;28;7232;-60
2022/07/11 04:46:59;;;;;;;;;;;;;;;28.34;35.56;94691.63;5005686;28;7007;-60
2022/07/11 04:49:31;;;;;;;;;;;;;;;28.37;34.97;94690.59;4988746;28;8543;-60
2022/07/11 04:51:59;;;;;;;;;;;;;;;28.35;35.63;94684.84;4998046;28;7584;-60
2022/07/11 04:54:29;;;;;;;;;;;;;;;28.33;36.15;94696.44;5011440;28;7651;-60
2022/07/11 04:57:04;;;;;;;;;;;;;;;28.33;35.79;94698.44;5001055;28;7514;-61
2022/07/11 04:59:31;;;;;;;;;;;;;;;28.33;35.31;94706.75;4992657;28;7702;-60
2022/07/11 05:02:01;;;;;;;;;;;;;;;28.31;35.32;94709.28;4990373;28;9082;-60
2022/07/11 05:04:27;;;;;;;;;;;;;;;28.30;35.57;94702.25;5004421;28;7266;-61
2022/07/11 05:06:55;;;;;;;;;;;;;;;28.28;35.50;94705.53;5003393;28;7174;-60
2022/07/11 05:09:21;;;;;;;;;;;;;;;28.26;35.18;94704.56;4988320;28;7224;-61
2022/07/11 05:11:47;;;;;;;;;;;;;;;28.25;34.77;94701.03;4997069;28;9194;-60
2022/07/11 05:14:15;;;;;;;;;;;;;;;28.27;35.44;94701.28;4987044;28;7275;-61
2022/07/11 05:16:43;;;;;;;;;;;;;;;28.31;35.25;94709.28;4982692;28;9107;-60
2022/07/11 05:19:09;;;;;;;;;;;;;;;28.26;34.74;94710.84;4992035;28;6989;-61
2022/07/11 05:21:35;;;;;;;;;;;;;;;28.26;35.40;94712.88;5004497;28;7333;-62
2022/07/11 05:24:04;;;;;;;;;;;;;;;28.25;34.78;94719.69;4986292;28;7349;-61
2022/07/11 05:26:32;;;;;;;;;;;;;;;28.25;35.33;94716.91;5002982;28;8936;-62
2022/07/11 05:29:05;;;;;;;;;;;;;;;28.24;34.85;94712.63;4981222;28;7258;-61
2022/07/11 05:32:04;;;;;;;;;;;;;;;28.23;35.14;94717.41;5010374;28;7240;-61
2022/07/11 05:34:41;;;;;;;;;;;;;;;28.22;35.40;94717.94;4948314;28;8622;-61
2022/07/11 05:37:08;;;;;;;;;;;;;;;28.21;35.61;94711.66;4963708;28;7243;-61
2022/07/11 05:39:34;;;;;;;;;;;;;;;28.21;35.32;94713.66;4953296;28;7311;-61
2022/07/11 05:42:05;;;;;;;;;;;;;;;28.23;35.58;94711.16;4950129;28;7295;-61
2022/07/11 05:44:42;;;;;;;;;;;;;;;28.22;35.20;94712.41;4952097;28;9542;-61
2022/07/11 05:47:11;;;;;;;;;;;;;;;28.21;35.36;94716.44;4949592;28;7180;-62
2022/07/11 05:49:37;;;;;;;;;;;;;;;28.19;35.39;94718.97;4967158;28;7025;-62
2022/07/11 05:52:11;;;;;;;;;;;;;;;28.19;35.13;94716.22;4967229;28;6989;-62
2022/07/11 05:54:40;;;;;;;;;;;;;;;28.18;34.46;94721.00;4969965;28;7154;-61
2022/07/11 05:57:15;;;;;;;;;;;;;;;28.18;34.04;94717.50;4957237;28;9403;-61
2022/07/11 05:59:47;;;;;;;;;;;;;;;28.16;34.24;94708.97;4954109;28;7079;-62
2022/07/11 06:02:37;;;;;;;;;;;;;;;28.17;33.87;94713.22;4953874;28;9148;-61
2022/07/11 06:05:15;;;;;;;;;;;;;;;28.17;34.06;94707.69;4949949;28;7048;-62
2022/07/11 06:10:38;;;;;;;;;;;;;;;28.17;33.67;94715.97;4995345;28;9034;-62
2022/07/11 06:13:08;;;;;;;;;;;;;;;28.15;32.97;94718.53;4990812;28;7403;-62
2022/07/11 06:15:51;;;;;;;;;;;;;;;28.13;32.92;94721.06;4996348;28;8745;-61
2022/07/11 06:18:20;;;;;;;;;;;;;;;28.14;33.20;94726.06;4994476;28;7335;-61
2022/07/11 06:20:46;;;;;;;;;;;;;;;28.15;32.84;94721.28;4999237;28;7198;-62
2022/07/11 06:23:14;;;;;;;;;;;;;;;28.14;33.16;94725.34;4992459;28;7003;-62
2022/07/11 06:25:42;;;;;;;;;;;;;;;28.12;32.89;94720.31;5009258;28;8769;-62
2022/07/11 06:28:08;;;;;;;;;;;;;;;28.10;32.77;94722.13;5008154;28;7508;-61
2022/07/11 06:30:41;;;;;;;;;;;;;;;28.11;32.92;94720.84;5008572;28;7146;-61
2022/07/11 06:33:18;;;;;;;;;;;;;;;28.12;32.61;94725.09;4998781;28;7246;-62
2022/07/11 06:35:46;;;;;;;;;;;;;;;28.10;32.73;94722.13;5009181;28;9061;-62
2022/07/11 06:38:13;;;;;;;;;;;;;;;28.10;32.79;94722.84;4993073;28;7231;-62
2022/07/11 06:40:51;;;;;;;;;;;;;;;28.12;32.82;94719.56;4994125;28;7335;-62
2022/07/11 06:43:18;;;;;;;;;;;;;;;28.09;32.24;94715.06;4989999;28;7429;-62
2022/07/11 06:45:46;;;;;;;;;;;;;;;28.09;32.81;94718.59;4986769;28;6991;-62
2022/07/11 06:48:14;;;;;;;;;;;;;;;28.09;32.48;94721.38;5008006;28;9376;-61
2022/07/11 06:50:44;;;;;;;;;;;;;;;28.10;32.85;94717.31;4985146;28;7179;-62
2022/07/11 06:53:15;;;;;;;;;;;;;;;28.09;32.64;94710.31;4995717;28;7229;-62
2022/07/11 06:55:43;;;;;;;;;;;;;;;28.09;32.94;94720.59;5010103;28;7373;-62
2022/07/11 06:58:31;;;;;;;;;;;;;;;28.11;33.08;94718.81;4990622;28;9448;-62
2022/07/11 07:01:06;;;;;;;;;;;;;;;28.07;32.74;94715.59;4991725;28;9349;-63
2022/07/11 07:03:34;;;;;;;;;;;;;;;28.09;32.95;94715.84;4992765;28;7053;-62
2022/07/11 07:06:02;;;;;;;;;;;;;;;28.10;32.63;94717.31;5008442;28;7331;-62
2022/07/11 07:08:43;;;;;;;;;;;;;;;28.08;33.04;94714.31;5003658;28;9072;-61
2022/07/11 07:11:11;;;;;;;;;;;;;;;28.10;32.92;94717.31;5007389;28;9418;-62
2022/07/11 07:13:37;;;;;;;;;;;;;;;28.10;33.59;94711.06;5007520;28;9224;-62
2022/07/11 07:16:06;;;;;;;;;;;;;;;28.12;33.36;94720.31;4994995;28;9225;-63
2022/07/11 07:18:46;;;;;;;;;;;;;;;28.13;32.93;94718.28;4993602;28;6988;-63
2022/07/11 07:21:14;;;;;;;;;;;;;;;28.14;33.38;94722.56;5008217;28;7372;-63
2022/07/11 07:23:40;;;;;;;;;;;;;;;28.14;33.42;94719.81;5002975;28;9108;-63
2022/07/11 07:26:07;;;;;;;;;;;;;;;28.15;33.53;94718.53;5009724;28;7072;-62
2022/07/11 07:28:34;;;;;;;;;;;;;;;28.12;33.61;94716.81;4991462;28;7398;-62
2022/07/11 07:31:04;;;;;;;;;;;;;;;28.17;33.35;94715.97;4993208;28;7210;-63
2022/07/11 07:33:30;;;;;;;;;;;;;;;28.18;33.51;94725.78;4995438;28;9102;-63
2022/07/11 07:35:56;;;;;;;;;;;;;;;28.19;32.83;94721.75;4989852;28;9119;-63
2022/07/11 07:38:25;;;;;;;;;;;;;;;28.18;33.60;94728.56;4996601;28;7633;-63
2022/07/11 07:40:57;;;;;;;;;;;;;;;28.19;33.43;94730.03;5005273;28;7283;-63
2022/07/11 07:43:23;;;;;;;;;;;;;;;28.19;32.99;94727.28;5001786;28;7514;-63
2022/07/11 07:45:49;;;;;;;;;;;;;;;28.19;33.18;94724.50;4996688;28;7011;-62
2022/07/11 07:48:20;;;;;;;;;;;;;;;28.20;33.06;94737.09;4997577;28;9156;-62
2022/07/11 07:50:48;;;;;;;;;;;;;;;28.17;33.27;94727.03;4989756;28;8439;-63
2022/07/11 07:53:15;;;;;;;;;;;;;;;28.17;32.83;94729.81;4988822;28;7009;-63
2022/07/11 07:55:43;;;;;;;;;;;;;;;28.13;33.32;94715.53;4990636;28;9349;-62
2022/07/11 07:58:09;;;;;;;;;;;;;;;28.18;33.27;94718.25;4990534;28;7368;-63
2022/07/11 08:03:19;;;;;;;;;;;;;;;28.18;33.33;94725.78;5002189;28;8077;-63
2022/07/11 08:05:45;;;;;;;;;;;;;;;28.14;33.31;94715.00;5003069;28;8792;-63
2022/07/11 08:08:11;;;;;;;;;;;;;;;28.13;33.12;94723.81;4984657;28;7290;-63
2022/07/11 08:10:43;;;;;;;;;;;;;;;28.15;33.60;94726.81;4991002;28;8088;-63
2022/07/11 08:13:19;;;;;;;;;;;;;;;28.14;33.12;94717.03;4989010;28;7383;-63
2022/07/11 08:15:48;;;;;;;;;;;;;;;28.16;33.51;94722.81;4989561;28;7593;-63
2022/07/11 08:18:14;;;;;;;;;;;;;;;28.15;33.29;94724.06;4993399;28;9572;-63
2022/07/11 08:20:42;;;;;;;;;;;;;;;28.15;32.95;94716.50;4991155;28;8518;-63
2022/07/11 08:23:12;;;;;;;;;;;;;;;28.19;32.92;94716.22;5003707;28;7539;-63
2022/07/11 08:25:39;;;;;;;;;;;;;;;28.21;32.86;94717.19;4978962;28;9105;-63
2022/07/11 08:28:05;;;;;;;;;;;;;;;28.21;32.30;94719.97;5003485;28;9193;-63
2022/07/11 08:30:31;;;;;;;;;;;;;;;28.22;32.28;94715.19;4987437;28;7035;-63
2022/07/11 08:33:16;;;;;;;;;;;;;;;28.23;32.87;94713.94;5005224;28;6864;-63
2022/07/11 08:35:50;;;;;;;;;;;;;;;28.23;33.25;94714.66;4993906;28;7280;-63
2022/07/11 08:38:19;;;;;;;;;;;;;;;28.22;32.93;94713.16;4992795;28;7391;-63
2022/07/11 08:40:51;;;;;;;;;;;;;;;28.24;33.22;94718.16;4976997;28;7607;-62
2022/07/11 08:43:47;;;;;;;;;;;;;;;28.24;32.18;94715.41;4993432;28;9027;-63
2022/07/11 08:46:25;;;;;;;;;;;;;;;28.25;32.76;94711.38;4950028;28;7091;-63
2022/07/11 08:49:29;;;;;;;;;;;;;;;28.25;32.58;94714.16;4950402;28;7235;-62
2022/07/11 08:52:07;;;;;;;;;;;;;;;28.25;32.63;94716.91;4956753;28;8785;-63
2022/07/11 08:54:42;;;;;;;;;;;;;;;28.26;32.72;94710.09;4938825;28;7276;-63
2022/07/11 08:57:18;;;;;;;;;;;;;;;28.27;32.88;94711.59;4952294;28;7257;-63
2022/07/11 08:59:57;;;;;;;;;;;;;;;28.27;32.58;94706.06;4941585;28;7681;-64
2022/07/11 09:03:00;;;;;;;;;;;;;;;28.28;32.48;94704.78;4956068;28;7254;-63
2022/07/11 09:05:28;;;;;;;;;;;;;;;28.27;33.07;94706.06;4879702;29;7209;-63
2022/07/11 09:08:04;;;;;;;;;;;;;;;28.27;32.37;94709.56;4877704;29;7239;-63
2022/07/11 09:10:47;;;;;;;;;;;;;;;28.27;32.56;94697.78;4894187;29;7243;-63
2022/07/11 09:13:17;;;;;;;;;;;;;;;28.29;32.69;94707.06;4894531;29;7040;-63
2022/07/11 09:15:45;;;;;;;;;;;;;;;28.29;32.42;94706.31;4879705;29;7177;-63
2022/07/11 09:18:31;;;;;;;;;;;;;;;28.29;32.84;94706.31;4880208;29;9018;-63
2022/07/11 09:26:47;;;;;;;;;;;;;;;28.29;32.74;94703.53;4957813;28;9255;-64
2022/07/11 09:29:26;;;;;;;;;;;;;;;28.28;32.53;94704.78;4947035;28;7436;-63
2022/07/11 09:31:56;;;;;;;;;;;;;;;28.29;32.83;94709.06;4955370;28;8810;-63
2022/07/11 09:34:32;;;;;;;;;;;;;;;28.29;32.49;94706.31;4932957;28;9641;-64
2022/07/11 09:36:59;;;;;;;;;;;;;;;28.28;32.63;94705.53;4926215;28;9029;-63
2022/07/11 09:39:29;;;;;;;;;;;;;;;28.29;32.64;94698.75;4965510;28;7233;-64
2022/07/11 09:41:57;;;;;;;;;;;;;;;28.28;32.36;94699.25;4987951;28;9100;-64
2022/07/11 09:44:33;;;;;;;;;;;;;;;28.28;32.41;94699.25;5013260;28;7548;-63
2022/07/11 09:47:00;;;;;;;;;;;;;;;28.28;32.76;94699.25;4990043;28;7211;-63
2022/07/11 09:49:36;;;;;;;;;;;;;;;28.27;32.74;94698.50;4997975;28;8743;-63
2022/07/11 09:52:17;;;;;;;;;;;;;;;28.28;32.70;94699.25;4994400;28;7078;-63
2022/07/11 09:54:59;;;;;;;;;;;;;;;28.28;32.75;94699.25;5015182;28;7198;-63
2022/07/11 09:57:36;;;;;;;;;;;;;;;28.28;32.53;94699.25;5010790;28;9380;-63
2022/07/11 10:00:07;;;;;;;;;;;;;;;28.27;32.94;94695.00;5006180;28;7605;-64
2022/07/11 10:02:34;;;;;;;;;;;;;;;28.27;32.85;94698.50;4988845;28;7199;-63
2022/07/11 10:05:04;;;;;;;;;;;;;;;28.31;32.83;94703.75;4994230;28;8712;-64
2022/07/11 10:07:33;;;;;;;;;;;;;;;28.30;32.73;94705.00;4989696;28;9209;-63
2022/07/11 10:10:04;;;;;;;;;;;;;;;28.32;32.92;94694.19;4981683;28;7445;-63
2022/07/11 10:12:37;;;;;;;;;;;;;;;28.33;33.27;94701.22;4995870;28;7258;-63
2022/07/11 10:15:07;;;;;;;;;;;;;;;28.33;32.74;94690.16;4979913;28;7415;-63
2022/07/11 10:18:14;;;;;;;;;;;;;;;28.35;32.72;94693.91;4999927;28;7154;-63
2022/07/11 10:20:42;;;;;;;;;;;;;;;28.34;33.04;94691.63;4945413;28;9194;-63
2022/07/11 10:23:31;;;;;;;;;;;;;;;28.35;32.96;94687.59;4932692;28;7321;-63
2022/07/11 10:26:03;;;;;;;;;;;;;;;28.35;33.03;94693.91;4936886;28;8953;-63
2022/07/11 10:28:45;;;;;;;;;;;;;;;28.35;33.26;94691.13;4960861;28;7054;-63
2022/07/11 10:31:25;;;;;;;;;;;;;;;28.36;32.98;94697.41;4937000;28;7276;-63
2022/07/11 10:34:18;;;;;;;;;;;;;;;28.38;32.96;94697.66;4936249;28;7170;-63
2022/07/11 10:36:46;;;;;;;;;;;;;;;28.38;33.07;94699.66;4933487;28;7477;-63
2022/07/11 10:39:21;;;;;;;;;;;;;;;28.38;33.12;94699.66;4956445;28;8780;-63
2022/07/11 10:41:48;;;;;;;;;;;;;;;28.38;32.88;94697.66;4928746;28;7868;-63
2022/07/11 10:44:15;;;;;;;;;;;;;;;28.38;33.40;94697.66;4960086;28;7263;-63
2022/07/11 10:46:41;;;;;;;;;;;;;;;28.37;33.32;94704.44;4959769;28;9279;-62
2022/07/11 10:49:18;;;;;;;;;;;;;;;28.38;33.42;94699.66;4925310;28;9186;-62
2022/07/11 10:51:47;;;;;;;;;;;;;;;28.38;33.42;94699.66;4960787;28;7331;-63
2022/07/11 10:54:39;;;;;;;;;;;;;;;28.40;33.47;94697.13;4931018;28;7258;-63
2022/07/11 10:57:05;;;;;;;;;;;;;;;28.42;33.13;94700.84;4946364;28;9359;-63
2022/07/11 10:59:34;;;;;;;;;;;;;;;28.41;33.19;94693.06;4992324;28;7265;-62
2022/07/11 11:02:12;;;;;;;;;;;;;;;28.44;33.25;94700.31;5012671;28;8780;-62
2022/07/11 11:05:04;;;;;;;;;;;;;;;28.41;33.32;94691.06;4991711;28;9394;-62
2022/07/11 11:07:41;;;;;;;;;;;;;;;28.45;33.37;94693.53;5010011;28;9251;-63
2022/07/11 11:10:29;;;;;;;;;;;;;;;28.45;33.42;94691.50;4997520;28;7191;-61
2022/07/11 11:13:07;;;;;;;;;;;;;;;28.44;33.32;94690.00;5004473;28;7217;-61
2022/07/11 11:15:36;;;;;;;;;;;;;;;28.45;33.14;94691.50;4988634;28;8374;-61
2022/07/11 11:20:59;;;;;;;;;;;;;;;28.46;33.16;94697.78;5026762;28;7259;-62
2022/07/11 11:23:30;;;;;;;;;;;;;;;28.45;33.05;94697.03;4997871;28;7238;-62
2022/07/11 11:26:18;;;;;;;;;;;;;;;28.46;33.05;94689.47;4991392;28;7274;-61
2022/07/11 11:29:10;;;;;;;;;;;;;;;28.48;33.06;94696.00;4987882;28;7305;-61
2022/07/11 11:31:36;;;;;;;;;;;;;;;28.47;33.11;94691.72;4985288;28;7149;-62
2022/07/11 11:34:05;;;;;;;;;;;;;;;28.48;32.76;94686.94;4992921;28;7170;-62
2022/07/11 11:36:31;;;;;;;;;;;;;;;28.50;32.67;94701.00;5013484;28;7218;-62
2022/07/11 11:39:05;;;;;;;;;;;;;;;28.49;32.91;94691.97;4990317;28;7505;-62
2022/07/11 11:41:32;;;;;;;;;;;;;;;28.49;33.05;94691.97;4989707;28;7234;-62
2022/07/11 11:44:28;;;;;;;;;;;;;;;28.50;33.05;94689.94;4994817;28;7206;-62
2022/07/11 11:47:04;;;;;;;;;;;;;;;28.49;33.26;94683.66;4921199;29;9183;-62
2022/07/11 11:49:45;;;;;;;;;;;;;;;28.50;33.14;94676.84;4898226;29;7078;-62
2022/07/11 11:52:32;;;;;;;;;;;;;;;28.51;33.05;94672.81;4910907;29;7001;-62
2022/07/11 11:54:59;;;;;;;;;;;;;;;28.52;32.85;94682.59;4897177;29;7087;-62
2022/07/11 11:57:31;;;;;;;;;;;;;;;28.52;33.17;94685.38;4897644;29;9058;-62
2022/07/11 11:59:59;;;;;;;;;;;;;;;28.53;33.17;94689.66;4895473;29;7681;-62
2022/07/11 12:02:30;;;;;;;;;;;;;;;28.53;33.17;94675.81;4913034;29;8784;-62
2022/07/11 12:05:07;;;;;;;;;;;;;;;28.54;33.16;94677.28;4912948;29;8227;-62
2022/07/11 12:07:33;;;;;;;;;;;;;;;28.54;33.22;94671.00;4907483;29;7351;-62
2022/07/11 12:10:03;;;;;;;;;;;;;;;28.53;33.18;94675.81;4919635;29;7332;-62
2022/07/11 12:12:48;;;;;;;;;;;;;;;28.53;33.42;94675.81;4908544;29;7063;-62
2022/07/11 12:16:39;;;;;;;;;;;;;;;28.55;33.02;94678.81;4887585;29;7879;-62
2022/07/11 12:18:24;;;;;;;;;;;;;;;28.56;33.21;94669.22;4912138;29;9037;-62
2022/07/11 12:20:51;;;;;;;;;;;;;;;28.55;33.23;94673.28;4914295;29;7354;-62
2022/07/11 12:23:19;;;;;;;;;;;;;;;28.56;33.61;94671.97;4957055;28;7282;-63
2022/07/11 12:25:46;;;;;;;;;;;;;;;28.56;32.95;94666.44;4994815;28;8843;-62
2022/07/11 12:28:15;;;;;;;;;;;;;;;28.57;33.42;94675.50;5019075;28;7901;-63
2022/07/11 12:30:41;;;;;;;;;;;;;;;28.57;33.19;94664.44;4971172;28;9852;-63
2022/07/11 12:33:10;;;;;;;;;;;;;;;28.58;33.24;94665.97;5000489;28;9476;-62
2022/07/11 12:35:56;;;;;;;;;;;;;;;28.60;33.06;94666.91;5001844;28;7197;-63
2022/07/11 12:38:52;;;;;;;;;;;;;;;28.61;33.06;94668.44;5009487;28;7111;-63
2022/07/11 12:41:18;;;;;;;;;;;;;;;28.62;33.16;94667.16;5005519;28;7133;-62
2022/07/11 12:46:39;;;;;;;;;;;;;;;28.60;33.12;94657.88;5007624;28;7293;-62
2022/07/11 12:49:09;;;;;;;;;;;;;;;28.64;33.18;94659.09;4985253;28;8721;-63
2022/07/11 12:51:39;;;;;;;;;;;;;;;28.63;32.99;94654.81;4992294;28;9104;-62
2022/07/11 12:54:13;;;;;;;;;;;;;;;28.64;32.79;94659.09;5015095;28;8704;-62
2022/07/11 12:56:52;;;;;;;;;;;;;;;28.65;33.29;94657.81;5016225;28;8759;-62
2022/07/11 12:59:21;;;;;;;;;;;;;;;28.64;33.15;94659.09;5010045;28;7235;-62
2022/07/11 13:02:04;;;;;;;;;;;;;;;28.65;32.92;94657.81;4990301;28;7236;-62
2022/07/11 13:04:38;;;;;;;;;;;;;;;28.65;33.12;94652.25;5008096;28;7496;-62
2022/07/11 13:11:00;;;;;;;;;;;;;;;28.66;33.43;94651.00;5014557;28;9378;-62
2022/07/11 13:13:39;;;;;;;;;;;;;;;28.67;33.41;94652.47;4962340;28;6992;-63
2022/07/11 13:16:07;;;;;;;;;;;;;;;28.69;33.27;94649.19;4952821;28;9062;-62
2022/07/11 13:18:37;;;;;;;;;;;;;;;28.67;33.57;94660.78;4964232;28;6982;-62
2022/07/11 13:21:03;;;;;;;;;;;;;;;28.68;33.72;94658.78;4963625;28;6998;-62
2022/07/11 13:23:30;;;;;;;;;;;;;;;28.69;33.62;94649.19;4965426;28;6921;-62
2022/07/11 13:25:59;;;;;;;;;;;;;;;28.66;33.99;94648.25;4969319;28;7200;-63
2022/07/11 13:28:34;;;;;;;;;;;;;;;28.69;33.95;94655.47;4969047;28;7024;-62
2022/07/11 13:31:09;;;;;;;;;;;;;;;28.70;33.89;94648.69;4953516;28;7263;-62
2022/07/11 13:33:38;;;;;;;;;;;;;;;28.71;34.35;94658.47;4952669;28;7555;-62
2022/07/11 13:36:15;;;;;;;;;;;;;;;28.69;34.40;94640.88;4950439;28;7234;-62
2022/07/11 13:38:43;;;;;;;;;;;;;;;28.72;33.97;94648.91;4951269;28;7591;-62
2022/07/11 13:41:26;;;;;;;;;;;;;;;28.71;34.30;94652.19;4969484;28;9096;-62
2022/07/11 13:43:52;;;;;;;;;;;;;;;28.72;34.20;94645.38;4960546;28;7255;-62